Rorichmoor — V2BV7 — position and weather

sailwx.info

Track history (hours):
 
Tides and Currents Weather Stations Pressure Air Temp Water Temp Dewpoint Dewpoint Depression Visibility Wind Speed Wind Dir Waves Ship Positions

Rorichmoor

Last reported at 2018-Mar-29 22:56 UTC. Time now 2018-Apr-23 23:26 UTC.
Position N 41°08' E 001°40'.
Warning: this ship's position is 25 days out of date.

Length 80 m; draft 3.1 m.

Type: Cargo ship. MMSI: 304938000.

Date/timePositionNaut miles runAvg speedWind from/ knotsBaromVisibWave heightAir tempDewpointWater temp
2018-Mar-29 22:56N 41°08' E 001°40'410.3
2018-Mar-29 22:30N 41°09' E 001°46'510.4
2018-Mar-29 22:00N 41°11' E 001°53'810.4
2018-Mar-29 21:15N 41°12' E 002°03'310.4
2018-Mar-29 21:00N 41°13' E 002°06'18 0.7
2018-Mar-28 18:07N 41°06' E 002°29'1 9.3
2018-Mar-28 18:00N 41°05' E 002°28'233 9.5
2018-Mar-27 17:23N 37°50' W 000°16'610.1
2018-Mar-27 16:45N 37°45' W 000°20'210.0
2018-Mar-27 16:30N 37°43' W 000°22'5 9.8
2018-Mar-27 16:00N 37°39' W 000°26'5 9.6
2018-Mar-27 15:30N 37°35' W 000°29'5 9.6
2018-Mar-27 15:00N 37°31' W 000°33'  
2018-Mar-23 17:56N 35°57' W 005°19'  
Track history (hours):
 
Tides and Currents Weather Stations Pressure Air Temp Water Temp Dewpoint Dewpoint Depression Visibility Wind Speed Wind Dir Waves Ship Positions

Rorichmoor

Last reported at 2018-Mar-29 22:56 UTC. Time now 2018-Apr-23 23:26 UTC.
Position N 41°08' E 001°40'.
Warning: this ship's position is 25 days out of date.

Length 80 m; draft 3.1 m.

Type: Cargo ship. MMSI: 304938000.

Date/timePositionNaut miles runAvg speedWind from/ knotsBaromVisibWave heightAir tempDewpointWater temp
2018-Mar-29 22:56N 41°08' E 001°40'410.3
2018-Mar-29 22:30N 41°09' E 001°46'510.4
2018-Mar-29 22:00N 41°11' E 001°53'810.4
2018-Mar-29 21:15N 41°12' E 002°03'310.4
2018-Mar-29 21:00N 41°13' E 002°06'18 0.7
2018-Mar-28 18:07N 41°06' E 002°29'1 9.3
2018-Mar-28 18:00N 41°05' E 002°28'233 9.5
2018-Mar-27 17:23N 37°50' W 000°16'610.1
2018-Mar-27 16:45N 37°45' W 000°20'210.0
2018-Mar-27 16:30N 37°43' W 000°22'5 9.8
2018-Mar-27 16:00N 37°39' W 000°26'5 9.6
2018-Mar-27 15:30N 37°35' W 000°29'5 9.6
2018-Mar-27 15:00N 37°31' W 000°33'  
2018-Mar-23 17:56N 35°57' W 005°19'  

Dump ship's entire track history